createdAt,value
2018-05-12T00:01:15.413Z,14.60
2018-05-12T00:06:18.042Z,14.60
2018-05-12T00:13:47.583Z,14.50
2018-05-12T00:16:22.310Z,14.40
2018-05-12T00:18:52.563Z,14.30
2018-05-12T00:21:23.744Z,14.30
2018-05-12T00:23:52.267Z,14.30
2018-05-12T00:26:26.130Z,14.30
2018-05-12T00:28:54.599Z,14.20
2018-05-12T00:31:37.095Z,14.20
2018-05-12T00:34:05.844Z,14.20
2018-05-12T00:36:35.111Z,14.10
2018-05-12T00:39:05.262Z,14.10
2018-05-12T00:41:35.202Z,14.00
2018-05-12T00:44:03.770Z,14.00
2018-05-12T00:46:36.064Z,13.90
2018-05-12T00:49:04.792Z,13.80
2018-05-12T00:51:45.610Z,13.70
2018-05-12T00:54:14.141Z,13.70
2018-05-12T00:56:42.868Z,13.70
2018-05-12T00:59:12.855Z,13.60
2018-05-12T01:01:42.066Z,13.60
2018-05-12T01:06:44.437Z,13.50
2018-05-12T01:09:12.904Z,13.40
2018-05-12T01:11:55.279Z,13.40
2018-05-12T01:14:24.178Z,13.40
2018-05-12T01:16:52.934Z,13.30
2018-05-12T01:19:22.527Z,13.20
2018-05-12T01:27:03.112Z,13.10
2018-05-12T01:29:33.371Z,13.10
2018-05-12T01:32:02.656Z,13.10
2018-05-12T01:34:33.317Z,13.00
2018-05-12T01:39:33.246Z,12.40
2018-05-12T01:42:02.143Z,11.90
2018-05-12T01:44:30.883Z,11.70
2018-05-12T01:47:04.902Z,11.70
2018-05-12T01:49:33.656Z,11.80
2018-05-12T01:52:07.647Z,11.90
2018-05-12T01:54:36.116Z,12.00
2018-05-12T01:57:09.531Z,12.10
2018-05-12T01:59:38.398Z,12.10
2018-05-12T02:02:12.582Z,12.30
2018-05-12T02:04:42.607Z,12.40
2018-05-12T02:07:14.846Z,12.30
2018-05-12T02:09:44.498Z,12.30
2018-05-12T02:12:16.669Z,11.90
2018-05-12T02:17:18.019Z,11.40
2018-05-12T02:19:46.796Z,11.50
2018-05-12T02:22:19.861Z,11.40
2018-05-12T02:24:49.121Z,11.30
2018-05-12T02:27:21.934Z,11.30
2018-05-12T02:29:50.803Z,11.00
2018-05-12T02:32:32.739Z,10.80
2018-05-12T02:35:01.248Z,10.80
2018-05-12T02:37:29.993Z,10.80
2018-05-12T02:39:58.467Z,10.70
2018-05-12T02:42:30.755Z,10.70
2018-05-12T02:44:59.551Z,10.60
2018-05-12T02:47:33.116Z,10.90
2018-05-12T02:50:01.609Z,10.60
2018-05-12T02:52:43.634Z,10.60
2018-05-12T02:55:12.899Z,10.60
2018-05-12T02:57:43.177Z,10.50
2018-05-12T03:00:11.657Z,10.40
2018-05-12T03:02:40.935Z,10.40
2018-05-12T03:05:11.235Z,10.10
2018-05-12T03:07:41.007Z,10.10
2018-05-12T03:10:09.618Z,10.00
2018-05-12T03:15:11.456Z,10.00
2018-05-12T03:17:45.570Z,10.00
2018-05-12T03:25:18.654Z,10.10
2018-05-12T03:27:51.236Z,10.00
2018-05-12T03:32:53.919Z,10.10
2018-05-12T03:35:23.370Z,10.10
2018-05-12T03:37:55.234Z,10.00
2018-05-12T03:43:06.396Z,10.10
2018-05-12T03:45:36.736Z,10.00
2018-05-12T03:50:36.338Z,10.10
2018-05-12T03:55:36.179Z,10.00
2018-05-12T03:58:05.558Z,10.10
2018-05-12T04:10:09.746Z,10.20
2018-05-12T04:12:39.062Z,10.30
2018-05-12T04:15:12.170Z,10.20
2018-05-12T04:17:42.166Z,10.10
2018-05-12T04:20:19.771Z,10.10
2018-05-12T04:22:48.274Z,10.10
2018-05-12T04:25:19.529Z,10.20
2018-05-12T04:27:50.984Z,10.30
2018-05-12T04:30:23.000Z,10.30
2018-05-12T04:32:51.512Z,10.30
2018-05-12T04:35:24.055Z,10.40
2018-05-12T04:37:52.552Z,10.50
2018-05-12T04:40:25.971Z,10.70
2018-05-12T04:45:27.904Z,11.00
2018-05-12T04:50:30.170Z,11.10
2018-05-12T04:55:32.328Z,11.30
2018-05-12T05:00:35.336Z,11.50
2018-05-12T05:05:37.250Z,11.60
2018-05-12T05:08:07.538Z,11.70
2018-05-12T05:10:39.851Z,11.80
2018-05-12T05:13:09.939Z,12.00
2018-05-12T05:15:42.222Z,12.10
2018-05-12T05:20:43.708Z,12.30
2018-05-12T05:23:13.322Z,12.50
2018-05-12T05:25:54.168Z,12.40
2018-05-12T05:28:23.638Z,12.50
2018-05-12T05:33:22.410Z,12.60
2018-05-12T05:35:51.558Z,12.80
2018-05-12T05:38:20.415Z,12.90
2018-05-12T05:40:53.635Z,12.90
2018-05-12T05:43:23.162Z,12.90
2018-05-12T05:45:56.134Z,13.10
2018-05-12T05:50:58.799Z,13.40
2018-05-12T05:53:27.703Z,13.70
2018-05-12T05:56:01.357Z,13.40
2018-05-12T05:58:30.153Z,16.90
2018-05-12T06:01:10.994Z,19.00
2018-05-12T06:03:40.476Z,20.80
2018-05-12T06:06:09.725Z,21.40
2018-05-12T06:08:38.240Z,22.40
2018-05-12T06:11:10.103Z,23.80
2018-05-12T06:13:38.570Z,25.00
2018-05-12T06:16:19.643Z,26.00
2018-05-12T06:18:48.941Z,26.20
2018-05-12T06:21:17.692Z,25.30
2018-05-12T06:23:46.657Z,23.90
2018-05-12T06:26:17.047Z,25.00
2018-05-12T06:28:45.766Z,26.20
2018-05-12T06:31:18.160Z,26.90
2018-05-12T06:33:47.434Z,27.20
2018-05-12T06:36:20.882Z,27.80
2018-05-12T06:38:49.788Z,28.40
2018-05-12T06:41:30.640Z,28.50
2018-05-12T06:43:59.504Z,28.50
2018-05-12T06:46:28.705Z,26.00
2018-05-12T06:48:57.955Z,25.00
2018-05-12T06:51:26.831Z,23.60
2018-05-12T06:53:57.135Z,23.50
2018-05-12T06:56:28.800Z,24.00
2018-05-12T06:58:58.464Z,23.90
2018-05-12T07:01:31.259Z,25.10
2018-05-12T07:06:34.921Z,26.50
2018-05-12T07:09:04.587Z,27.20
2018-05-12T07:11:36.086Z,27.10
2018-05-12T07:14:05.088Z,27.40
2018-05-12T07:16:38.361Z,27.90
2018-05-12T07:19:07.668Z,27.90
2018-05-12T07:21:40.916Z,27.80
2018-05-12T07:24:10.490Z,28.10
2018-05-12T07:26:42.404Z,28.40
2018-05-12T07:29:11.791Z,29.30
2018-05-12T07:31:44.925Z,30.70
2018-05-12T07:34:14.115Z,31.00
2018-05-12T07:36:55.696Z,30.00
2018-05-12T07:39:27.910Z,30.20
2018-05-12T07:41:56.801Z,30.70
2018-05-12T07:44:25.303Z,30.70
2018-05-12T07:46:54.624Z,31.00
2018-05-12T07:49:23.130Z,30.70
2018-05-12T07:51:54.709Z,30.60
2018-05-12T07:54:25.007Z,30.50
2018-05-12T07:56:57.340Z,29.40
2018-05-12T07:59:26.668Z,29.20
2018-05-12T08:02:09.090Z,29.70
2018-05-12T08:04:38.015Z,29.90
2018-05-12T08:07:08.465Z,29.60
2018-05-12T08:09:36.951Z,29.30
2018-05-12T08:12:07.088Z,28.90
2018-05-12T08:14:35.883Z,27.10
2018-05-12T08:17:07.919Z,29.10
2018-05-12T08:19:36.824Z,28.10
2018-05-12T08:22:11.435Z,27.50
2018-05-12T08:24:40.355Z,28.30
2018-05-12T08:27:22.132Z,28.80
2018-05-12T08:29:51.212Z,28.10
2018-05-12T08:32:20.228Z,28.10
2018-05-12T08:34:49.876Z,28.20
2018-05-12T08:37:19.483Z,28.20
2018-05-12T08:39:49.275Z,28.20
2018-05-12T08:42:22.119Z,28.10
2018-05-12T08:44:51.319Z,27.50
2018-05-12T08:47:23.055Z,27.70
2018-05-12T08:49:52.115Z,26.90
2018-05-12T08:52:24.988Z,27.30
2018-05-12T08:54:53.891Z,28.00
2018-05-12T08:57:35.633Z,29.10
2018-05-12T09:00:04.793Z,29.10
2018-05-12T09:02:33.338Z,27.80
2018-05-12T09:05:01.900Z,26.70
2018-05-12T09:07:31.681Z,27.10
2018-05-12T09:10:00.653Z,27.50
2018-05-12T09:12:41.956Z,27.60
2018-05-12T09:17:41.991Z,26.80
2018-05-12T09:20:11.403Z,27.30
2018-05-12T09:22:40.880Z,27.20
2018-05-12T09:25:10.410Z,27.20
2018-05-12T09:27:41.111Z,26.40
2018-05-12T09:30:09.966Z,26.20
2018-05-12T09:32:52.181Z,25.80
2018-05-12T09:35:22.989Z,25.30
2018-05-12T09:37:52.995Z,24.00
2018-05-12T09:42:51.526Z,24.20
2018-05-12T09:47:51.704Z,23.70
2018-05-12T09:52:54.087Z,24.10
2018-05-12T09:55:23.740Z,23.90
2018-05-12T10:00:25.203Z,23.90
2018-05-12T10:02:58.522Z,23.70
2018-05-12T10:05:27.030Z,23.90
2018-05-12T10:08:00.320Z,24.30
2018-05-12T10:10:30.016Z,24.40
2018-05-12T10:13:06.647Z,23.80
2018-05-12T10:18:06.739Z,23.40
2018-05-12T10:23:10.325Z,23.30
2018-05-12T10:25:39.307Z,23.60
2018-05-12T10:28:20.819Z,23.70
2018-05-12T10:33:20.086Z,23.60
2018-05-12T10:35:53.465Z,23.60
2018-05-12T10:38:23.358Z,23.70
2018-05-12T10:40:52.952Z,23.60
2018-05-12T10:53:22.348Z,24.00
2018-05-12T10:58:25.472Z,24.00
2018-05-12T11:00:55.303Z,23.80
2018-05-12T11:03:26.604Z,24.40
2018-05-12T11:05:55.125Z,23.90
2018-05-12T11:08:29.524Z,24.10
2018-05-12T11:10:58.799Z,24.20
2018-05-12T11:13:39.836Z,24.30
2018-05-12T11:16:09.792Z,23.80
2018-05-12T11:21:08.199Z,23.90
2018-05-12T11:23:36.975Z,24.00
2018-05-12T11:26:07.061Z,24.00
2018-05-12T11:28:39.599Z,24.10
2018-05-12T11:31:08.839Z,24.20
2018-05-12T11:33:41.968Z,24.00
2018-05-12T11:41:12.768Z,23.90
2018-05-12T11:43:54.487Z,24.00
2018-05-12T11:46:23.285Z,23.80
2018-05-12T11:48:53.395Z,23.70
2018-05-12T11:56:22.541Z,23.90
2018-05-12T11:58:54.907Z,24.00
2018-05-12T12:01:25.376Z,24.00
2018-05-12T12:03:57.082Z,24.40
2018-05-12T12:08:58.544Z,23.60
2018-05-12T12:11:27.121Z,23.70
2018-05-12T12:14:02.822Z,23.70
2018-05-12T12:16:32.760Z,23.90
2018-05-12T12:19:05.246Z,24.00
2018-05-12T12:21:34.599Z,24.20
2018-05-12T12:24:07.100Z,24.10
2018-05-12T12:26:36.751Z,24.50
2018-05-12T12:31:47.887Z,24.20
2018-05-12T12:34:17.801Z,24.40
2018-05-12T12:36:48.927Z,24.00
2018-05-12T12:39:18.223Z,23.90
2018-05-12T12:41:47.884Z,23.90
2018-05-12T12:44:18.446Z,24.10
2018-05-12T12:49:20.064Z,24.10
2018-05-12T12:51:49.529Z,24.30
2018-05-12T12:54:23.365Z,24.40
2018-05-12T12:56:52.289Z,24.70
2018-05-12T12:59:24.594Z,24.80
2018-05-12T13:01:54.530Z,24.70
2018-05-12T13:04:28.231Z,24.60
2018-05-12T13:06:56.783Z,24.60
2018-05-12T13:09:29.225Z,23.20
2018-05-12T13:11:58.186Z,24.30
2018-05-12T13:14:30.618Z,24.30
2018-05-12T13:17:01.206Z,24.30
2018-05-12T13:24:36.056Z,24.10
2018-05-12T13:27:06.306Z,24.30
2018-05-12T13:29:39.295Z,24.10
2018-05-12T13:32:08.187Z,24.00
2018-05-12T13:34:41.234Z,24.10
2018-05-12T13:37:10.236Z,24.40
2018-05-12T13:39:42.168Z,24.20
2018-05-12T13:42:10.713Z,24.40
2018-05-12T13:44:44.511Z,24.60
2018-05-12T13:49:48.955Z,24.40
2018-05-12T13:52:18.732Z,23.90
2018-05-12T13:54:50.435Z,24.30
2018-05-12T13:57:19.723Z,24.50
2018-05-12T14:00:01.170Z,24.50
2018-05-12T14:02:30.453Z,24.10
2018-05-12T14:04:59.409Z,24.40
2018-05-12T14:09:58.245Z,24.00
2018-05-12T14:12:27.557Z,24.30
2018-05-12T14:15:00.139Z,24.10
2018-05-12T14:17:29.112Z,24.00
2018-05-12T14:20:11.333Z,24.10
2018-05-12T14:22:41.013Z,24.00
2018-05-12T14:25:11.079Z,23.90
2018-05-12T14:27:40.074Z,24.00
2018-05-12T14:30:10.490Z,23.90
2018-05-12T14:32:39.071Z,23.80
2018-05-12T14:35:12.150Z,23.90
2018-05-12T14:37:42.653Z,24.10
2018-05-12T15:05:09.783Z,23.90
2018-05-12T15:07:41.219Z,23.90
2018-05-12T15:12:42.848Z,23.70
2018-05-12T15:20:12.278Z,23.60
2018-05-12T15:25:12.933Z,23.90
2018-05-12T15:27:42.300Z,23.70
2018-05-12T15:30:12.870Z,23.70
2018-05-12T15:32:42.585Z,23.90
2018-05-12T15:35:11.233Z,23.60
2018-05-12T15:37:41.980Z,23.70
2018-05-12T15:42:53.598Z,23.70
2018-05-12T15:47:53.671Z,23.70
2018-05-12T15:57:55.037Z,23.50
2018-05-12T16:02:53.929Z,23.60
2018-05-12T16:05:22.912Z,23.60
2018-05-12T16:08:05.102Z,23.60
2018-05-12T16:10:34.173Z,23.60
2018-05-12T16:13:04.160Z,23.60
2018-05-12T16:15:33.623Z,23.60
2018-05-12T16:18:02.594Z,23.40
2018-05-12T16:23:04.687Z,23.20
2018-05-12T16:25:34.100Z,23.30
2018-05-12T16:28:09.088Z,23.40
2018-05-12T16:33:11.931Z,23.00
2018-05-12T16:38:13.412Z,23.00
2018-05-12T16:40:43.510Z,22.70
2018-05-12T16:43:15.517Z,22.60
2018-05-12T16:45:57.857Z,22.50
2018-05-12T16:48:28.126Z,22.40
2018-05-12T16:50:58.229Z,22.30
2018-05-12T16:53:27.827Z,22.30
2018-05-12T16:55:56.768Z,22.10
2018-05-12T16:58:26.138Z,21.90
2018-05-12T17:00:55.615Z,21.90
2018-05-12T17:03:25.704Z,21.80
2018-05-12T17:05:55.419Z,21.80
2018-05-12T17:10:54.275Z,21.70
2018-05-12T17:13:28.425Z,21.80
2018-05-12T17:15:57.787Z,21.80
2018-05-12T17:18:30.821Z,21.80
2018-05-12T17:23:33.603Z,21.70
2018-05-12T17:28:35.094Z,21.60
2018-05-12T17:31:04.095Z,21.60
2018-05-12T17:33:37.852Z,21.60
2018-05-12T17:38:48.772Z,21.70
2018-05-12T17:41:18.137Z,21.70
2018-05-12T17:43:47.115Z,21.50
2018-05-12T17:48:46.011Z,21.40
2018-05-12T17:51:14.940Z,21.40
2018-05-12T17:53:47.487Z,21.30
2018-05-12T17:58:49.006Z,21.00
2018-05-12T18:03:52.293Z,20.80
2018-05-12T18:13:57.651Z,20.20
2018-05-12T18:19:00.554Z,20.10
2018-05-12T18:24:03.979Z,20.00
2018-05-12T18:29:06.296Z,19.70
2018-05-12T18:34:08.462Z,19.50
2018-05-12T18:39:20.160Z,19.50
2018-05-12T18:41:52.555Z,19.50
2018-05-12T18:44:21.269Z,19.50
2018-05-12T18:51:49.143Z,19.30
2018-05-12T18:54:19.103Z,19.30
2018-05-12T18:56:48.098Z,19.30
2018-05-12T18:59:21.635Z,19.20
2018-05-12T19:04:33.587Z,19.10
2018-05-12T19:19:34.528Z,18.80
2018-05-12T19:24:34.208Z,18.80
2018-05-12T19:27:03.967Z,18.80
2018-05-12T19:29:32.822Z,18.80
2018-05-12T19:37:05.039Z,18.80
2018-05-12T19:39:48.102Z,18.80
2018-05-12T19:54:48.185Z,18.70
2018-05-12T19:59:47.866Z,18.50
2018-05-12T20:02:16.386Z,18.50
2018-05-12T20:07:18.373Z,18.30
2018-05-12T20:14:55.875Z,18.30
2018-05-12T20:19:58.134Z,18.20
2018-05-12T20:27:30.992Z,18.00
2018-05-12T20:30:05.468Z,18.00
2018-05-12T20:35:06.680Z,17.90
2018-05-12T20:40:17.683Z,17.80
2018-05-12T20:52:46.224Z,17.60
2018-05-12T20:55:19.174Z,17.60
2018-05-12T20:57:52.387Z,17.60
2018-05-12T21:05:24.673Z,17.60
2018-05-12T21:10:25.307Z,17.40
2018-05-12T21:12:56.189Z,17.40
2018-05-12T21:15:24.878Z,17.40
2018-05-12T21:17:54.448Z,17.60
2018-05-12T21:20:28.235Z,17.70
2018-05-12T21:25:29.351Z,17.80
2018-05-12T21:27:59.343Z,17.70
2018-05-12T21:30:34.132Z,17.80
2018-05-12T21:35:35.129Z,17.70
2018-05-12T21:40:36.640Z,17.80
2018-05-12T21:43:05.698Z,17.80
2018-05-12T21:45:39.368Z,17.70
2018-05-12T21:50:42.622Z,17.50
2018-05-12T21:55:42.103Z,17.40
2018-05-12T22:00:45.004Z,17.30
2018-05-12T22:05:47.621Z,17.20
2018-05-12T22:10:51.443Z,17.10
2018-05-12T22:13:23.883Z,17.10
2018-05-12T22:23:28.235Z,17.10
2018-05-12T22:25:59.619Z,17.10
2018-05-12T22:31:00.356Z,17.00
2018-05-12T22:33:29.391Z,17.00
2018-05-12T22:36:20.745Z,17.00
2018-05-12T22:38:51.458Z,16.90
2018-05-12T22:43:51.491Z,16.80
2018-05-12T22:46:21.345Z,16.80
2018-05-12T22:53:51.795Z,16.90
2018-05-12T23:01:21.306Z,16.60
2018-05-12T23:03:50.671Z,16.40
2018-05-12T23:11:20.424Z,14.80
2018-05-12T23:13:50.507Z,16.10
2018-05-12T23:16:22.270Z,16.10
2018-05-12T23:21:24.885Z,16.00
2018-05-12T23:26:28.363Z,15.90
2018-05-12T23:28:58.515Z,15.70
2018-05-12T23:31:29.370Z,15.60
2018-05-12T23:33:58.931Z,15.70
2018-05-12T23:36:31.251Z,15.90
2018-05-12T23:57:14.848Z,16.40
2018-05-12T23:59:43.991Z,16.40
